createdAt,value
2023-02-25T00:01:00.391Z,93758.44
2023-02-25T00:06:01.832Z,93756.53
2023-02-25T00:11:03.227Z,93761.47
2023-02-25T00:16:04.611Z,93757.28
2023-02-25T00:21:06.045Z,93761.09
2023-02-25T00:26:07.457Z,93750.78
2023-02-25T00:31:09.130Z,93749.63
2023-02-25T00:36:10.634Z,93737.00
2023-02-25T00:41:12.402Z,93730.91
2023-02-25T00:46:13.964Z,93720.16
2023-02-25T00:51:15.458Z,93710.63
2023-02-25T00:56:16.883Z,93700.28
2023-02-25T01:01:18.353Z,93697.22
2023-02-25T01:06:20.012Z,93694.13
2023-02-25T01:11:21.855Z,93684.97
2023-02-25T01:16:23.607Z,93675.78
2023-02-25T01:21:25.390Z,93680.38
2023-02-25T01:26:26.872Z,93678.81
2023-02-25T01:31:28.484Z,93662.69
2023-02-25T01:36:30.436Z,93684.13
2023-02-25T01:41:32.149Z,93676.47
2023-02-25T01:46:33.779Z,93664.19
2023-02-25T01:51:35.372Z,93665.72
2023-02-25T01:56:36.997Z,93668.34
2023-02-25T02:01:38.485Z,93679.06
2023-02-25T02:06:40.363Z,93667.97
2023-02-25T02:11:42.004Z,93659.53
2023-02-25T02:16:43.561Z,93658.38
2023-02-25T02:21:45.164Z,93647.28
2023-02-25T02:26:46.473Z,93645.00
2023-02-25T02:31:47.916Z,93653.44
2023-02-25T02:36:49.322Z,93634.72
2023-02-25T02:41:50.609Z,93642.03
2023-02-25T02:46:51.908Z,93624.84
2023-02-25T02:51:53.165Z,93615.31
2023-02-25T02:56:54.474Z,93610.00
2023-02-25T03:01:55.728Z,93616.91
2023-02-25T03:06:57.052Z,93615.41
2023-02-25T03:11:58.373Z,93631.88
2023-02-25T03:16:59.756Z,93619.63
2023-02-25T03:22:01.110Z,93606.66
2023-02-25T03:27:02.419Z,93621.94
2023-02-25T03:32:03.759Z,93612.44
2023-02-25T03:37:05.111Z,93622.00
2023-02-25T03:42:06.415Z,93622.38
2023-02-25T03:47:07.706Z,93610.56
2023-02-25T03:52:09.029Z,93609.44
2023-02-25T03:57:10.290Z,93604.09
2023-02-25T04:02:11.583Z,93594.19
2023-02-25T04:07:13.018Z,93602.97
2023-02-25T04:12:14.283Z,93619.78
2023-02-25T04:17:15.610Z,93612.91
2023-02-25T04:22:16.881Z,93615.59
2023-02-25T04:27:18.146Z,93600.72
2023-02-25T04:32:19.533Z,93596.13
2023-02-25T04:37:20.938Z,93579.69
2023-02-25T04:42:22.292Z,93564.81
2023-02-25T04:47:23.576Z,93564.44
2023-02-25T04:52:24.879Z,93554.53
2023-02-25T04:57:26.159Z,93561.38
2023-02-25T05:02:27.407Z,93531.25
2023-02-25T05:07:28.660Z,93549.19
2023-02-25T05:12:29.914Z,93541.97
2023-02-25T05:17:31.183Z,93530.50
2023-02-25T05:22:32.440Z,93535.84
2023-02-25T05:27:33.735Z,93532.41
2023-02-25T05:32:35.106Z,93559.50
2023-02-25T05:37:36.422Z,93582.41
2023-02-25T05:42:37.699Z,93591.16
2023-02-25T05:47:39.008Z,93579.72
2023-02-25T05:52:40.404Z,93575.53
2023-02-25T05:57:41.668Z,93585.81
2023-02-25T06:02:43.035Z,93598.03
2023-02-25T06:07:44.368Z,93590.78
2023-02-25T06:12:46.599Z,93601.81
2023-02-25T06:17:48.000Z,93599.16
2023-02-25T06:22:49.272Z,93589.22
2023-02-25T06:27:50.532Z,93586.19
2023-02-25T06:32:51.985Z,93595.31
2023-02-25T06:37:53.423Z,93582.72
2023-02-25T06:47:56.076Z,93595.66
2023-02-25T06:52:57.446Z,93587.66
2023-02-25T06:57:58.770Z,93581.22
2023-02-25T07:03:00.076Z,93568.63
2023-02-25T07:08:01.373Z,93548.44
2023-02-25T07:13:02.697Z,93541.19
2023-02-25T07:18:04.053Z,93530.50
2023-02-25T07:23:05.375Z,93532.78
2023-02-25T07:28:06.796Z,93520.56
2023-02-25T07:33:08.355Z,93506.41
2023-02-25T07:38:09.641Z,93497.25
2023-02-25T07:43:10.940Z,93508.69
2023-02-25T07:48:12.223Z,93472.81
2023-02-25T07:53:13.512Z,93488.06
2023-02-25T07:58:14.881Z,93459.41
2023-02-25T08:03:16.182Z,93462.44
2023-02-25T08:08:17.442Z,93441.41
2023-02-25T08:13:18.706Z,93451.28
2023-02-25T08:18:20.242Z,93438.66
2023-02-25T08:23:21.520Z,93442.44
2023-02-25T08:28:22.868Z,93452.72
2023-02-25T08:33:24.175Z,93431.25
2023-02-25T08:38:25.584Z,93442.72
2023-02-25T08:43:27.059Z,93427.00
2023-02-25T08:48:28.530Z,93420.09
2023-02-25T08:53:30.646Z,93420.84
2023-02-25T08:58:31.951Z,93408.59
2023-02-25T09:03:33.269Z,93425.00
2023-02-25T09:08:34.557Z,93399.38
2023-02-25T09:13:35.851Z,93388.28
2023-02-25T09:18:37.168Z,93391.69
2023-02-25T09:23:38.549Z,93402.88
2023-02-25T09:28:39.801Z,93390.53
2023-02-25T09:33:41.189Z,93368.75
2023-02-25T09:38:42.532Z,93368.28
2023-02-25T09:43:44.735Z,93368.69
2023-02-25T09:48:46.391Z,93358.34
2023-02-25T09:53:48.266Z,93355.63
2023-02-25T09:58:50.032Z,93345.66
2023-02-25T10:03:51.390Z,93339.19
2023-02-25T10:08:52.680Z,93346.00
2023-02-25T10:13:54.010Z,93312.38
2023-02-25T10:18:55.348Z,93285.91
2023-02-25T10:23:56.677Z,93269.47
2023-02-25T10:28:58.004Z,93236.25
2023-02-25T10:33:59.266Z,93247.00
2023-02-25T10:39:00.562Z,93256.19
2023-02-25T10:44:01.836Z,93237.50
2023-02-25T10:49:03.129Z,93233.31
2023-02-25T10:54:04.418Z,93219.97
2023-02-25T10:59:05.747Z,93198.94
2023-02-25T11:04:07.036Z,93189.41
2023-02-25T11:09:08.310Z,93191.72
2023-02-25T11:14:09.598Z,93202.03
2023-02-25T11:19:10.900Z,93178.38
2023-02-25T11:24:12.234Z,93146.28
2023-02-25T11:29:13.551Z,93143.59
2023-02-25T11:34:14.843Z,93129.50
2023-02-25T11:39:16.184Z,93109.63
2023-02-25T11:44:17.582Z,93105.09
2023-02-25T11:49:18.857Z,93112.38
2023-02-25T11:54:20.159Z,93119.59
2023-02-25T11:59:21.452Z,93115.03
2023-02-25T12:04:22.783Z,93108.16
2023-02-25T12:09:24.104Z,93131.88
2023-02-25T12:14:25.397Z,93117.56
2023-02-25T12:19:26.676Z,93169.31
2023-02-25T12:24:28.067Z,93170.66
2023-02-25T12:29:29.398Z,93143.84
2023-02-25T12:34:30.682Z,93128.91
2023-02-25T12:39:31.934Z,93120.81
2023-02-25T12:44:33.279Z,93107.00
2023-02-25T12:49:34.641Z,93080.13
2023-02-25T12:54:36.007Z,93090.75
2023-02-25T12:59:37.364Z,93072.66
2023-02-25T13:04:38.786Z,93070.34
2023-02-25T13:09:40.152Z,93091.22
2023-02-25T13:14:41.478Z,93058.19
2023-02-25T13:19:42.932Z,93053.44
2023-02-25T13:24:44.334Z,93044.91
2023-02-25T13:29:45.655Z,93031.00
2023-02-25T13:34:49.261Z,93064.19
2023-02-25T13:39:51.807Z,93046.22
2023-02-25T13:44:54.970Z,93047.00
2023-02-25T13:49:56.859Z,93047.84
2023-02-25T13:54:59.912Z,93065.09
2023-02-25T14:00:02.866Z,93056.72
2023-02-25T14:05:04.262Z,93048.28
2023-02-25T14:10:07.429Z,93065.09
2023-02-25T14:15:10.151Z,93023.13
2023-02-25T14:20:12.101Z,93025.09
2023-02-25T14:25:15.803Z,93029.72
2023-02-25T14:30:19.327Z,93006.75
2023-02-25T14:35:22.027Z,93001.84
2023-02-25T14:40:24.527Z,92993.03
2023-02-25T14:45:28.019Z,92990.31
2023-02-25T14:50:31.064Z,93003.59
2023-02-25T14:55:33.474Z,93033.25
2023-02-25T15:00:36.055Z,93058.16
2023-02-25T15:05:38.906Z,93072.69
2023-02-25T15:10:41.852Z,93063.53
2023-02-25T15:15:46.907Z,93071.28
2023-02-25T15:20:50.411Z,93075.41
2023-02-25T15:25:53.616Z,93047.44
2023-02-25T15:30:55.236Z,93038.78
2023-02-25T15:35:56.642Z,93060.63
2023-02-25T15:40:58.040Z,93057.59
2023-02-25T15:45:59.454Z,93047.28
2023-02-25T15:51:00.920Z,93075.19
2023-02-25T15:56:02.361Z,93101.09
2023-02-25T16:01:03.759Z,93074.34
2023-02-25T16:06:05.054Z,93075.63
2023-02-25T16:11:09.670Z,93063.38
2023-02-25T16:16:12.864Z,93058.06
2023-02-25T16:21:15.367Z,93054.63
2023-02-25T16:26:17.320Z,93051.63
2023-02-25T16:31:19.476Z,93059.28
2023-02-25T16:36:21.482Z,93026.09
2023-02-25T16:41:30.349Z,93054.00
2023-02-25T16:46:38.441Z,93061.69
2023-02-25T16:51:39.961Z,93060.19
2023-02-25T16:56:42.315Z,93079.38
2023-02-25T17:01:45.863Z,93108.78
2023-02-25T17:06:50.369Z,93089.72
2023-02-25T17:11:52.710Z,93116.09
2023-02-25T17:16:54.307Z,93108.47
2023-02-25T17:21:55.823Z,93112.28
2023-02-25T17:27:01.531Z,93111.91
2023-02-25T17:32:05.768Z,93123.78
2023-02-25T17:37:07.688Z,93147.88
2023-02-25T17:42:09.337Z,93107.78
2023-02-25T17:47:10.823Z,93084.47
2023-02-25T17:52:12.353Z,93090.16
2023-02-25T19:12:21.927Z,93032.00
2023-02-25T19:20:05.788Z,93036.16
2023-02-25T19:25:08.244Z,93049.28
2023-02-25T19:30:09.568Z,93061.41
2023-02-25T19:35:10.936Z,93031.16
2023-02-25T19:40:12.359Z,93049.81
2023-02-25T19:45:14.235Z,93055.63
2023-02-25T19:50:15.554Z,93045.00
2023-02-25T19:55:17.024Z,93046.28
2023-02-25T20:00:18.531Z,93060.44
2023-02-25T20:05:20.833Z,93069.22
2023-02-25T20:10:22.448Z,93061.22
2023-02-25T20:15:23.841Z,93048.53
2023-02-25T20:20:25.498Z,93032.59
2023-02-25T20:25:26.960Z,93044.00
2023-02-25T20:30:28.355Z,93049.00
2023-02-25T20:35:33.722Z,93059.41
2023-02-25T20:40:38.846Z,93057.72
2023-02-25T20:45:40.290Z,93084.69
2023-02-25T20:50:41.626Z,93087.56
2023-02-25T20:55:43.001Z,93074.09
2023-02-25T21:00:44.373Z,93085.25
2023-02-25T21:05:45.695Z,93117.53
2023-02-25T21:10:46.939Z,93059.28
2023-02-25T21:15:56.005Z,93047.53
2023-02-25T21:20:59.795Z,93045.19
2023-02-25T21:26:01.517Z,93060.16
2023-02-25T21:31:02.867Z,93045.47
2023-02-25T21:36:04.273Z,93038.00
2023-02-25T21:41:05.547Z,93067.03
2023-02-25T21:46:06.876Z,93043.66
2023-02-25T21:51:08.201Z,93048.84
2023-02-25T21:56:09.484Z,93050.03
2023-02-25T22:01:10.781Z,93059.03
2023-02-25T22:06:12.045Z,93071.88
2023-02-25T22:11:13.367Z,93084.44
2023-02-25T22:16:14.737Z,93087.50
2023-02-25T22:21:16.073Z,93107.75
2023-02-25T22:26:17.342Z,93124.34
2023-02-25T22:31:18.694Z,93128.06
2023-02-25T22:36:20.030Z,93131.50
2023-02-25T22:41:21.431Z,93128.47
2023-02-25T22:46:23.202Z,93141.03
2023-02-25T22:51:24.773Z,93133.91
2023-02-25T22:56:26.275Z,93151.72
2023-02-25T23:01:27.774Z,93156.50
2023-02-25T23:06:42.135Z,93166.78
2023-02-25T23:11:43.951Z,93157.00
2023-02-25T23:16:45.297Z,93168.19
2023-02-25T23:21:46.580Z,93179.31
2023-02-25T23:26:47.820Z,93207.38
2023-02-25T23:31:49.201Z,93178.28
2023-02-25T23:36:50.553Z,93207.69
2023-02-25T23:41:51.854Z,93169.84
2023-02-25T23:46:53.394Z,93153.97
2023-02-25T23:51:54.704Z,93200.25
2023-02-25T23:56:56.057Z,93168.34
